sensor_id;sensor_type;location;lat;lon;timestamp;P1;durP1;ratioP1;P2;durP2;ratioP2
71290;SDS011;59073;51.994;4.448;2023-04-24T00:00:12;1.13;;;1.13;;
71290;SDS011;59073;51.994;4.448;2023-04-24T00:02:40;1.18;;;1.18;;
71290;SDS011;59073;51.994;4.448;2023-04-24T00:05:07;1.15;;;1.15;;
71290;SDS011;59073;51.994;4.448;2023-04-24T00:07:33;1.08;;;1.08;;
71290;SDS011;59073;51.994;4.448;2023-04-24T00:09:59;1.19;;;1.19;;
71290;SDS011;59073;51.994;4.448;2023-04-24T00:12:25;1.20;;;1.20;;
71290;SDS011;59073;51.994;4.448;2023-04-24T00:14:51;1.33;;;1.33;;
71290;SDS011;59073;51.994;4.448;2023-04-24T00:17:17;1.17;;;1.17;;
71290;SDS011;59073;51.994;4.448;2023-04-24T00:19:45;1.41;;;1.41;;
71290;SDS011;59073;51.994;4.448;2023-04-24T00:22:11;1.19;;;1.19;;
71290;SDS011;59073;51.994;4.448;2023-04-24T00:24:38;1.02;;;1.02;;
71290;SDS011;59073;51.994;4.448;2023-04-24T00:27:04;1.11;;;1.11;;
71290;SDS011;59073;51.994;4.448;2023-04-24T00:29:29;1.05;;;1.05;;
71290;SDS011;59073;51.994;4.448;2023-04-24T00:31:55;0.76;;;0.76;;
71290;SDS011;59073;51.994;4.448;2023-04-24T00:34:20;0.81;;;0.81;;
71290;SDS011;59073;51.994;4.448;2023-04-24T00:36:46;0.90;;;0.90;;
71290;SDS011;59073;51.994;4.448;2023-04-24T00:39:11;0.80;;;0.80;;
71290;SDS011;59073;51.994;4.448;2023-04-24T00:41:37;0.97;;;0.97;;
71290;SDS011;59073;51.994;4.448;2023-04-24T00:44:02;1.02;;;1.02;;
71290;SDS011;59073;51.994;4.448;2023-04-24T00:46:27;1.08;;;1.08;;
71290;SDS011;59073;51.994;4.448;2023-04-24T00:48:53;1.12;;;1.12;;
71290;SDS011;59073;51.994;4.448;2023-04-24T00:51:21;1.06;;;1.06;;
71290;SDS011;59073;51.994;4.448;2023-04-24T00:53:46;1.30;;;1.30;;
71290;SDS011;59073;51.994;4.448;2023-04-24T00:56:12;1.37;;;1.37;;
71290;SDS011;59073;51.994;4.448;2023-04-24T00:58:38;1.13;;;1.13;;
71290;SDS011;59073;51.994;4.448;2023-04-24T01:01:04;0.56;;;0.56;;
71290;SDS011;59073;51.994;4.448;2023-04-24T01:03:32;0.42;;;0.42;;
71290;SDS011;59073;51.994;4.448;2023-04-24T01:05:58;0.39;;;0.39;;
71290;SDS011;59073;51.994;4.448;2023-04-24T01:08:24;0.44;;;0.44;;
71290;SDS011;59073;51.994;4.448;2023-04-24T01:10:53;0.45;;;0.45;;
71290;SDS011;59073;51.994;4.448;2023-04-24T01:13:19;0.52;;;0.52;;
71290;SDS011;59073;51.994;4.448;2023-04-24T01:15:46;0.79;;;0.79;;
71290;SDS011;59073;51.994;4.448;2023-04-24T01:18:12;0.63;;;0.63;;
71290;SDS011;59073;51.994;4.448;2023-04-24T01:20:42;0.46;;;0.46;;
71290;SDS011;59073;51.994;4.448;2023-04-24T01:23:10;0.48;;;0.48;;
71290;SDS011;59073;51.994;4.448;2023-04-24T01:25:36;0.49;;;0.49;;
71290;SDS011;59073;51.994;4.448;2023-04-24T01:28:02;0.27;;;0.27;;
71290;SDS011;59073;51.994;4.448;2023-04-24T01:30:28;0.33;;;0.33;;
71290;SDS011;59073;51.994;4.448;2023-04-24T01:32:54;0.29;;;0.29;;
71290;SDS011;59073;51.994;4.448;2023-04-24T01:35:20;0.35;;;0.35;;
71290;SDS011;59073;51.994;4.448;2023-04-24T01:37:46;0.43;;;0.43;;
71290;SDS011;59073;51.994;4.448;2023-04-24T01:40:11;0.43;;;0.43;;
71290;SDS011;59073;51.994;4.448;2023-04-24T01:42:37;0.47;;;0.47;;
71290;SDS011;59073;51.994;4.448;2023-04-24T01:45:04;0.60;;;0.60;;
71290;SDS011;59073;51.994;4.448;2023-04-24T01:47:30;0.47;;;0.47;;
71290;SDS011;59073;51.994;4.448;2023-04-24T01:49:57;0.57;;;0.57;;
71290;SDS011;59073;51.994;4.448;2023-04-24T01:52:22;0.51;;;0.51;;
71290;SDS011;59073;51.994;4.448;2023-04-24T01:54:48;0.58;;;0.58;;
71290;SDS011;59073;51.994;4.448;2023-04-24T01:57:14;0.64;;;0.64;;
71290;SDS011;59073;51.994;4.448;2023-04-24T01:59:39;0.83;;;0.83;;
71290;SDS011;59073;51.994;4.448;2023-04-24T02:02:05;0.79;;;0.79;;
71290;SDS011;59073;51.994;4.448;2023-04-24T02:04:31;0.73;;;0.73;;
71290;SDS011;59073;51.994;4.448;2023-04-24T02:06:56;0.75;;;0.75;;
71290;SDS011;59073;51.994;4.448;2023-04-24T02:09:22;0.75;;;0.75;;
71290;SDS011;59073;51.994;4.448;2023-04-24T02:11:47;0.79;;;0.79;;
71290;SDS011;59073;51.994;4.448;2023-04-24T02:14:13;0.90;;;0.90;;
71290;SDS011;59073;51.994;4.448;2023-04-24T02:16:38;1.02;;;1.02;;
71290;SDS011;59073;51.994;4.448;2023-04-24T02:19:04;0.99;;;0.99;;
71290;SDS011;59073;51.994;4.448;2023-04-24T02:21:29;1.17;;;1.17;;
71290;SDS011;59073;51.994;4.448;2023-04-24T02:23:56;1.00;;;1.00;;
71290;SDS011;59073;51.994;4.448;2023-04-24T02:26:22;1.06;;;1.06;;
71290;SDS011;59073;51.994;4.448;2023-04-24T02:28:48;1.20;;;1.20;;
71290;SDS011;59073;51.994;4.448;2023-04-24T02:31:13;1.30;;;1.30;;
71290;SDS011;59073;51.994;4.448;2023-04-24T02:33:39;1.05;;;1.05;;
71290;SDS011;59073;51.994;4.448;2023-04-24T02:36:05;0.79;;;0.79;;
71290;SDS011;59073;51.994;4.448;2023-04-24T02:38:30;0.73;;;0.73;;
71290;SDS011;59073;51.994;4.448;2023-04-24T02:40:55;0.58;;;0.58;;
71290;SDS011;59073;51.994;4.448;2023-04-24T02:43:21;0.81;;;0.81;;
71290;SDS011;59073;51.994;4.448;2023-04-24T02:45:47;0.45;;;0.45;;
71290;SDS011;59073;51.994;4.448;2023-04-24T02:48:13;0.50;;;0.50;;
71290;SDS011;59073;51.994;4.448;2023-04-24T02:50:38;0.52;;;0.52;;
71290;SDS011;59073;51.994;4.448;2023-04-24T02:53:04;0.56;;;0.56;;
71290;SDS011;59073;51.994;4.448;2023-04-24T02:55:29;0.43;;;0.43;;
71290;SDS011;59073;51.994;4.448;2023-04-24T02:57:55;0.42;;;0.41;;
71290;SDS011;59073;51.994;4.448;2023-04-24T03:00:20;0.60;;;0.58;;
71290;SDS011;59073;51.994;4.448;2023-04-24T03:02:46;0.37;;;0.35;;
71290;SDS011;59073;51.994;4.448;2023-04-24T03:05:11;0.44;;;0.43;;
71290;SDS011;59073;51.994;4.448;2023-04-24T03:07:37;0.59;;;0.56;;
71290;SDS011;59073;51.994;4.448;2023-04-24T03:10:03;0.68;;;0.65;;
71290;SDS011;59073;51.994;4.448;2023-04-24T03:12:30;0.67;;;0.64;;
71290;SDS011;59073;51.994;4.448;2023-04-24T03:14:56;0.56;;;0.53;;
71290;SDS011;59073;51.994;4.448;2023-04-24T03:17:21;0.70;;;0.67;;
71290;SDS011;59073;51.994;4.448;2023-04-24T03:19:47;0.71;;;0.68;;
71290;SDS011;59073;51.994;4.448;2023-04-24T03:22:12;0.51;;;0.50;;
71290;SDS011;59073;51.994;4.448;2023-04-24T03:24:37;0.51;;;0.51;;
71290;SDS011;59073;51.994;4.448;2023-04-24T03:27:03;0.60;;;0.60;;
71290;SDS011;59073;51.994;4.448;2023-04-24T03:29:28;0.74;;;0.72;;
71290;SDS011;59073;51.994;4.448;2023-04-24T03:31:54;0.66;;;0.63;;
71290;SDS011;59073;51.994;4.448;2023-04-24T03:34:19;0.65;;;0.61;;
71290;SDS011;59073;51.994;4.448;2023-04-24T03:36:44;0.48;;;0.45;;
71290;SDS011;59073;51.994;4.448;2023-04-24T03:39:12;0.47;;;0.46;;
71290;SDS011;59073;51.994;4.448;2023-04-24T03:41:38;0.45;;;0.45;;
71290;SDS011;59073;51.994;4.448;2023-04-24T03:44:03;0.53;;;0.53;;
71290;SDS011;59073;51.994;4.448;2023-04-24T03:46:28;0.47;;;0.47;;
71290;SDS011;59073;51.994;4.448;2023-04-24T03:48:54;0.51;;;0.51;;
71290;SDS011;59073;51.994;4.448;2023-04-24T03:51:20;0.40;;;0.39;;
71290;SDS011;59073;51.994;4.448;2023-04-24T03:53:45;0.42;;;0.41;;
71290;SDS011;59073;51.994;4.448;2023-04-24T03:56:11;0.38;;;0.38;;
71290;SDS011;59073;51.994;4.448;2023-04-24T03:58:36;0.51;;;0.51;;
71290;SDS011;59073;51.994;4.448;2023-04-24T04:01:02;0.51;;;0.51;;
71290;SDS011;59073;51.994;4.448;2023-04-24T04:03:27;0.44;;;0.43;;
71290;SDS011;59073;51.994;4.448;2023-04-24T04:05:52;0.44;;;0.44;;
71290;SDS011;59073;51.994;4.448;2023-04-24T04:08:19;0.49;;;0.48;;
71290;SDS011;59073;51.994;4.448;2023-04-24T04:10:45;0.46;;;0.46;;
71290;SDS011;59073;51.994;4.448;2023-04-24T04:13:10;0.59;;;0.57;;
71290;SDS011;59073;51.994;4.448;2023-04-24T04:15:35;0.72;;;0.69;;
71290;SDS011;59073;51.994;4.448;2023-04-24T04:18:01;0.69;;;0.66;;
71290;SDS011;59073;51.994;4.448;2023-04-24T04:20:27;0.52;;;0.50;;
71290;SDS011;59073;51.994;4.448;2023-04-24T04:22:52;0.83;;;0.80;;
71290;SDS011;59073;51.994;4.448;2023-04-24T04:25:18;0.79;;;0.76;;
71290;SDS011;59073;51.994;4.448;2023-04-24T04:27:45;1.40;;;1.34;;
71290;SDS011;59073;51.994;4.448;2023-04-24T04:30:12;1.33;;;1.29;;
71290;SDS011;59073;51.994;4.448;2023-04-24T04:32:38;2.00;;;1.97;;
71290;SDS011;59073;51.994;4.448;2023-04-24T04:35:04;2.01;;;2.01;;
71290;SDS011;59073;51.994;4.448;2023-04-24T04:37:30;2.33;;;2.31;;
71290;SDS011;59073;51.994;4.448;2023-04-24T04:39:58;2.57;;;2.55;;
71290;SDS011;59073;51.994;4.448;2023-04-24T04:42:25;2.31;;;2.29;;
71290;SDS011;59073;51.994;4.448;2023-04-24T04:44:52;2.18;;;2.14;;
71290;SDS011;59073;51.994;4.448;2023-04-24T04:47:18;1.93;;;1.90;;
71290;SDS011;59073;51.994;4.448;2023-04-24T04:49:50;2.24;;;2.22;;
71290;SDS011;59073;51.994;4.448;2023-04-24T04:52:17;2.62;;;2.60;;
71290;SDS011;59073;51.994;4.448;2023-04-24T04:54:43;4.33;;;4.33;;
71290;SDS011;59073;51.994;4.448;2023-04-24T04:57:08;5.67;;;5.67;;
71290;SDS011;59073;51.994;4.448;2023-04-24T04:59:34;6.81;;;6.81;;
71290;SDS011;59073;51.994;4.448;2023-04-24T05:02:00;7.74;;;7.74;;
71290;SDS011;59073;51.994;4.448;2023-04-24T05:04:25;7.54;;;7.54;;
71290;SDS011;59073;51.994;4.448;2023-04-24T05:06:51;7.80;;;7.76;;
71290;SDS011;59073;51.994;4.448;2023-04-24T05:09:17;8.09;;;8.08;;
71290;SDS011;59073;51.994;4.448;2023-04-24T05:11:42;8.20;;;8.20;;
71290;SDS011;59073;51.994;4.448;2023-04-24T05:14:08;7.74;;;7.70;;
71290;SDS011;59073;51.994;4.448;2023-04-24T05:16:33;6.41;;;6.41;;
71290;SDS011;59073;51.994;4.448;2023-04-24T05:18:59;6.69;;;6.68;;
71290;SDS011;59073;51.994;4.448;2023-04-24T05:21:25;6.67;;;6.67;;
71290;SDS011;59073;51.994;4.448;2023-04-24T05:23:50;6.70;;;6.70;;
71290;SDS011;59073;51.994;4.448;2023-04-24T05:26:16;6.90;;;6.89;;
71290;SDS011;59073;51.994;4.448;2023-04-24T05:28:41;8.04;;;8.02;;
71290;SDS011;59073;51.994;4.448;2023-04-24T05:31:06;7.76;;;7.76;;
71290;SDS011;59073;51.994;4.448;2023-04-24T05:33:32;8.26;;;8.26;;
71290;SDS011;59073;51.994;4.448;2023-04-24T05:35:57;7.72;;;7.72;;
71290;SDS011;59073;51.994;4.448;2023-04-24T05:38:23;8.08;;;8.04;;
71290;SDS011;59073;51.994;4.448;2023-04-24T05:40:48;8.20;;;8.17;;
71290;SDS011;59073;51.994;4.448;2023-04-24T05:43:14;8.33;;;8.33;;
71290;SDS011;59073;51.994;4.448;2023-04-24T05:45:39;7.99;;;7.99;;
71290;SDS011;59073;51.994;4.448;2023-04-24T05:48:05;7.66;;;7.66;;
71290;SDS011;59073;51.994;4.448;2023-04-24T05:50:30;7.66;;;7.63;;
71290;SDS011;59073;51.994;4.448;2023-04-24T05:52:56;7.23;;;7.22;;
71290;SDS011;59073;51.994;4.448;2023-04-24T05:55:26;7.63;;;7.62;;
71290;SDS011;59073;51.994;4.448;2023-04-24T05:57:52;7.15;;;7.11;;
71290;SDS011;59073;51.994;4.448;2023-04-24T06:00:18;7.27;;;7.26;;
71290;SDS011;59073;51.994;4.448;2023-04-24T06:02:44;6.60;;;6.59;;
71290;SDS011;59073;51.994;4.448;2023-04-24T06:05:11;6.40;;;6.40;;
71290;SDS011;59073;51.994;4.448;2023-04-24T06:07:36;5.93;;;5.88;;
71290;SDS011;59073;51.994;4.448;2023-04-24T06:10:02;5.88;;;5.68;;
71290;SDS011;59073;51.994;4.448;2023-04-24T06:12:28;5.93;;;5.64;;
71290;SDS011;59073;51.994;4.448;2023-04-24T06:14:53;6.09;;;5.73;;
71290;SDS011;59073;51.994;4.448;2023-04-24T06:17:20;5.69;;;5.34;;
71290;SDS011;59073;51.994;4.448;2023-04-24T06:19:46;5.27;;;4.95;;
71290;SDS011;59073;51.994;4.448;2023-04-24T06:22:11;5.18;;;4.77;;
71290;SDS011;59073;51.994;4.448;2023-04-24T06:24:36;5.13;;;4.70;;
71290;SDS011;59073;51.994;4.448;2023-04-24T06:27:02;5.43;;;4.98;;
71290;SDS011;59073;51.994;4.448;2023-04-24T06:29:27;5.31;;;4.94;;
71290;SDS011;59073;51.994;4.448;2023-04-24T06:31:53;4.59;;;4.26;;
71290;SDS011;59073;51.994;4.448;2023-04-24T06:34:18;4.76;;;4.34;;
71290;SDS011;59073;51.994;4.448;2023-04-24T06:36:44;4.43;;;4.05;;
71290;SDS011;59073;51.994;4.448;2023-04-24T06:39:09;5.03;;;4.48;;
71290;SDS011;59073;51.994;4.448;2023-04-24T06:41:35;5.00;;;4.52;;
71290;SDS011;59073;51.994;4.448;2023-04-24T06:44:00;5.21;;;4.65;;
71290;SDS011;59073;51.994;4.448;2023-04-24T06:46:26;5.13;;;4.60;;
71290;SDS011;59073;51.994;4.448;2023-04-24T06:48:55;5.01;;;4.55;;
71290;SDS011;59073;51.994;4.448;2023-04-24T06:51:24;4.45;;;4.01;;
71290;SDS011;59073;51.994;4.448;2023-04-24T06:53:51;4.49;;;4.02;;
71290;SDS011;59073;51.994;4.448;2023-04-24T06:56:16;4.49;;;3.93;;
71290;SDS011;59073;51.994;4.448;2023-04-24T06:58:42;5.16;;;4.31;;
71290;SDS011;59073;51.994;4.448;2023-04-24T07:01:09;4.48;;;3.59;;
71290;SDS011;59073;51.994;4.448;2023-04-24T07:03:35;5.12;;;4.01;;
71290;SDS011;59073;51.994;4.448;2023-04-24T07:06:01;4.47;;;3.57;;
71290;SDS011;59073;51.994;4.448;2023-04-24T07:08:28;4.87;;;3.93;;
71290;SDS011;59073;51.994;4.448;2023-04-24T07:10:55;5.23;;;4.08;;
71290;SDS011;59073;51.994;4.448;2023-04-24T07:13:22;4.77;;;3.69;;
71290;SDS011;59073;51.994;4.448;2023-04-24T07:15:48;4.42;;;3.43;;
71290;SDS011;59073;51.994;4.448;2023-04-24T07:18:16;4.77;;;3.61;;
71290;SDS011;59073;51.994;4.448;2023-04-24T07:20:41;5.09;;;3.95;;
71290;SDS011;59073;51.994;4.448;2023-04-24T07:23:07;4.77;;;3.64;;
71290;SDS011;59073;51.994;4.448;2023-04-24T07:25:33;5.41;;;4.13;;
71290;SDS011;59073;51.994;4.448;2023-04-24T07:27:58;4.09;;;3.08;;
71290;SDS011;59073;51.994;4.448;2023-04-24T07:30:24;4.30;;;3.22;;
71290;SDS011;59073;51.994;4.448;2023-04-24T07:32:50;4.18;;;3.07;;
71290;SDS011;59073;51.994;4.448;2023-04-24T07:35:15;4.65;;;3.39;;
71290;SDS011;59073;51.994;4.448;2023-04-24T07:37:41;3.99;;;2.97;;
71290;SDS011;59073;51.994;4.448;2023-04-24T07:40:11;3.76;;;2.84;;
71290;SDS011;59073;51.994;4.448;2023-04-24T07:42:39;4.43;;;3.31;;
71290;SDS011;59073;51.994;4.448;2023-04-24T07:45:05;3.69;;;2.86;;
71290;SDS011;59073;51.994;4.448;2023-04-24T07:47:32;3.49;;;2.74;;
71290;SDS011;59073;51.994;4.448;2023-04-24T07:49:58;3.74;;;2.92;;
71290;SDS011;59073;51.994;4.448;2023-04-24T07:52:24;3.44;;;2.67;;
71290;SDS011;59073;51.994;4.448;2023-04-24T07:54:50;3.64;;;2.82;;
71290;SDS011;59073;51.994;4.448;2023-04-24T07:57:15;3.80;;;2.88;;
71290;SDS011;59073;51.994;4.448;2023-04-24T07:59:41;3.58;;;2.78;;
71290;SDS011;59073;51.994;4.448;2023-04-24T08:02:07;3.79;;;3.03;;
71290;SDS011;59073;51.994;4.448;2023-04-24T08:04:32;3.23;;;2.62;;
71290;SDS011;59073;51.994;4.448;2023-04-24T08:06:58;3.21;;;2.56;;
71290;SDS011;59073;51.994;4.448;2023-04-24T08:09:23;3.00;;;2.39;;
71290;SDS011;59073;51.994;4.448;2023-04-24T08:11:49;3.08;;;2.51;;
71290;SDS011;59073;51.994;4.448;2023-04-24T08:14:14;3.31;;;2.70;;
71290;SDS011;59073;51.994;4.448;2023-04-24T08:16:40;2.96;;;2.44;;
71290;SDS011;59073;51.994;4.448;2023-04-24T08:19:06;2.82;;;2.35;;
71290;SDS011;59073;51.994;4.448;2023-04-24T08:21:31;2.24;;;1.83;;
71290;SDS011;59073;51.994;4.448;2023-04-24T08:23:57;2.68;;;2.20;;
71290;SDS011;59073;51.994;4.448;2023-04-24T08:26:22;2.64;;;2.20;;
71290;SDS011;59073;51.994;4.448;2023-04-24T08:28:48;2.72;;;2.24;;
71290;SDS011;59073;51.994;4.448;2023-04-24T08:31:13;2.58;;;2.15;;
71290;SDS011;59073;51.994;4.448;2023-04-24T08:33:39;2.59;;;2.22;;
71290;SDS011;59073;51.994;4.448;2023-04-24T08:36:06;2.38;;;2.08;;
71290;SDS011;59073;51.994;4.448;2023-04-24T08:38:32;2.38;;;2.09;;
71290;SDS011;59073;51.994;4.448;2023-04-24T08:40:59;1.77;;;1.56;;
71290;SDS011;59073;51.994;4.448;2023-04-24T08:43:26;1.60;;;1.42;;
71290;SDS011;59073;51.994;4.448;2023-04-24T08:45:52;1.81;;;1.59;;
71290;SDS011;59073;51.994;4.448;2023-04-24T08:48:22;1.81;;;1.58;;
71290;SDS011;59073;51.994;4.448;2023-04-24T08:50:48;1.53;;;1.36;;
71290;SDS011;59073;51.994;4.448;2023-04-24T08:53:16;1.21;;;1.11;;
71290;SDS011;59073;51.994;4.448;2023-04-24T08:55:43;1.41;;;1.30;;
71290;SDS011;59073;51.994;4.448;2023-04-24T08:58:12;1.20;;;1.10;;
71290;SDS011;59073;51.994;4.448;2023-04-24T09:00:39;1.38;;;1.24;;
71290;SDS011;59073;51.994;4.448;2023-04-24T09:03:05;1.32;;;1.16;;
71290;SDS011;59073;51.994;4.448;2023-04-24T09:05:30;1.32;;;1.13;;
71290;SDS011;59073;51.994;4.448;2023-04-24T09:07:57;1.62;;;1.34;;
71290;SDS011;59073;51.994;4.448;2023-04-24T09:10:25;1.59;;;1.29;;
71290;SDS011;59073;51.994;4.448;2023-04-24T09:12:51;1.28;;;1.03;;
71290;SDS011;59073;51.994;4.448;2023-04-24T09:15:20;1.53;;;1.24;;
71290;SDS011;59073;51.994;4.448;2023-04-24T09:17:46;1.19;;;0.97;;
71290;SDS011;59073;51.994;4.448;2023-04-24T09:20:12;1.40;;;1.14;;
71290;SDS011;59073;51.994;4.448;2023-04-24T09:22:37;1.67;;;1.37;;
71290;SDS011;59073;51.994;4.448;2023-04-24T09:25:04;1.38;;;1.10;;
71290;SDS011;59073;51.994;4.448;2023-04-24T09:27:32;1.20;;;0.96;;
71290;SDS011;59073;51.994;4.448;2023-04-24T09:29:58;1.35;;;1.06;;
71290;SDS011;59073;51.994;4.448;2023-04-24T09:32:25;1.75;;;1.35;;
71290;SDS011;59073;51.994;4.448;2023-04-24T09:37:43;1.32;;;0.98;;
71290;SDS011;59073;51.994;4.448;2023-04-24T09:40:17;1.81;;;1.35;;
71290;SDS011;59073;51.994;4.448;2023-04-24T09:42:45;1.61;;;1.19;;
71290;SDS011;59073;51.994;4.448;2023-04-24T09:45:16;1.41;;;1.05;;
71290;SDS011;59073;51.994;4.448;2023-04-24T09:47:42;1.51;;;1.12;;
71290;SDS011;59073;51.994;4.448;2023-04-24T09:50:14;1.46;;;1.09;;
71290;SDS011;59073;51.994;4.448;2023-04-24T09:52:41;1.61;;;1.18;;
71290;SDS011;59073;51.994;4.448;2023-04-24T09:55:18;1.46;;;1.07;;
71290;SDS011;59073;51.994;4.448;2023-04-24T09:57:46;1.73;;;1.23;;
71290;SDS011;59073;51.994;4.448;2023-04-24T10:00:20;1.41;;;1.00;;
71290;SDS011;59073;51.994;4.448;2023-04-24T10:02:54;1.91;;;1.35;;
71290;SDS011;59073;51.994;4.448;2023-04-24T10:05:28;1.82;;;1.27;;
71290;SDS011;59073;51.994;4.448;2023-04-24T10:07:57;1.52;;;1.05;;
71290;SDS011;59073;51.994;4.448;2023-04-24T10:10:25;1.52;;;1.07;;
71290;SDS011;59073;51.994;4.448;2023-04-24T10:12:51;1.57;;;1.10;;
71290;SDS011;59073;51.994;4.448;2023-04-24T10:15:16;2.20;;;1.54;;
71290;SDS011;59073;51.994;4.448;2023-04-24T10:17:46;1.80;;;1.26;;
71290;SDS011;59073;51.994;4.448;2023-04-24T10:20:17;1.54;;;1.09;;
71290;SDS011;59073;51.994;4.448;2023-04-24T10:22:45;1.79;;;1.29;;
71290;SDS011;59073;51.994;4.448;2023-04-24T10:25:16;2.84;;;2.00;;
71290;SDS011;59073;51.994;4.448;2023-04-24T10:27:43;2.77;;;1.94;;
71290;SDS011;59073;51.994;4.448;2023-04-24T10:30:11;2.46;;;1.71;;
71290;SDS011;59073;51.994;4.448;2023-04-24T10:32:38;2.08;;;1.43;;
71290;SDS011;59073;51.994;4.448;2023-04-24T10:35:03;2.65;;;1.80;;
71290;SDS011;59073;51.994;4.448;2023-04-24T10:37:34;2.98;;;1.99;;
71290;SDS011;59073;51.994;4.448;2023-04-24T10:40:05;2.93;;;1.92;;
71290;SDS011;59073;51.994;4.448;2023-04-24T10:42:33;2.63;;;1.73;;
71290;SDS011;59073;51.994;4.448;2023-04-24T10:44:58;2.54;;;1.66;;
71290;SDS011;59073;51.994;4.448;2023-04-24T10:47:27;2.34;;;1.55;;
71290;SDS011;59073;51.994;4.448;2023-04-24T10:49:52;2.27;;;1.53;;
71290;SDS011;59073;51.994;4.448;2023-04-24T10:52:18;2.33;;;1.56;;
71290;SDS011;59073;51.994;4.448;2023-04-24T10:54:45;2.04;;;1.36;;
71290;SDS011;59073;51.994;4.448;2023-04-24T10:59:43;2.35;;;1.58;;
71290;SDS011;59073;51.994;4.448;2023-04-24T11:02:09;1.88;;;1.25;;
71290;SDS011;59073;51.994;4.448;2023-04-24T11:04:35;1.86;;;1.22;;
71290;SDS011;59073;51.994;4.448;2023-04-24T11:07:02;1.72;;;1.13;;
71290;SDS011;59073;51.994;4.448;2023-04-24T11:09:31;1.64;;;1.09;;
71290;SDS011;59073;51.994;4.448;2023-04-24T11:12:07;1.75;;;1.16;;
71290;SDS011;59073;51.994;4.448;2023-04-24T11:17:30;1.29;;;0.87;;
71290;SDS011;59073;51.994;4.448;2023-04-24T11:20:05;1.68;;;1.14;;
71290;SDS011;59073;51.994;4.448;2023-04-24T11:22:34;1.95;;;1.34;;
71290;SDS011;59073;51.994;4.448;2023-04-24T11:25:02;1.93;;;1.33;;
71290;SDS011;59073;51.994;4.448;2023-04-24T11:27:29;1.67;;;1.13;;
71290;SDS011;59073;51.994;4.448;2023-04-24T11:34:56;1.61;;;1.08;;
71290;SDS011;59073;51.994;4.448;2023-04-24T11:37:24;1.93;;;1.30;;
71290;SDS011;59073;51.994;4.448;2023-04-24T11:39:53;2.74;;;1.85;;
71290;SDS011;59073;51.994;4.448;2023-04-24T11:42:21;2.93;;;1.98;;
71290;SDS011;59073;51.994;4.448;2023-04-24T11:44:48;2.58;;;1.73;;
71290;SDS011;59073;51.994;4.448;2023-04-24T11:47:15;3.12;;;2.10;;
71290;SDS011;59073;51.994;4.448;2023-04-24T11:49:41;2.73;;;1.86;;
71290;SDS011;59073;51.994;4.448;2023-04-24T11:52:06;2.40;;;1.63;;
71290;SDS011;59073;51.994;4.448;2023-04-24T11:54:32;2.72;;;1.87;;
71290;SDS011;59073;51.994;4.448;2023-04-24T11:56:57;2.42;;;1.68;;
71290;SDS011;59073;51.994;4.448;2023-04-24T11:59:23;2.22;;;1.58;;
71290;SDS011;59073;51.994;4.448;2023-04-24T12:01:48;2.37;;;1.71;;
71290;SDS011;59073;51.994;4.448;2023-04-24T12:04:16;2.99;;;2.10;;
71290;SDS011;59073;51.994;4.448;2023-04-24T12:10:07;2.77;;;1.95;;
71290;SDS011;59073;51.994;4.448;2023-04-24T12:12:26;2.89;;;2.05;;
71290;SDS011;59073;51.994;4.448;2023-04-24T12:14:53;2.60;;;1.90;;
71290;SDS011;59073;51.994;4.448;2023-04-24T12:17:30;2.60;;;1.93;;
71290;SDS011;59073;51.994;4.448;2023-04-24T12:19:58;3.39;;;2.51;;
71290;SDS011;59073;51.994;4.448;2023-04-24T12:22:42;3.39;;;2.56;;
71290;SDS011;59073;51.994;4.448;2023-04-24T12:25:16;2.95;;;2.29;;
71290;SDS011;59073;51.994;4.448;2023-04-24T12:27:51;2.96;;;2.32;;
71290;SDS011;59073;51.994;4.448;2023-04-24T12:30:41;3.17;;;2.39;;
71290;SDS011;59073;51.994;4.448;2023-04-24T12:33:09;3.73;;;2.72;;
71290;SDS011;59073;51.994;4.448;2023-04-24T12:35:35;4.47;;;3.24;;
71290;SDS011;59073;51.994;4.448;2023-04-24T12:38:13;3.74;;;2.69;;
71290;SDS011;59073;51.994;4.448;2023-04-24T12:40:41;3.05;;;2.20;;
71290;SDS011;59073;51.994;4.448;2023-04-24T12:43:17;3.50;;;2.58;;
71290;SDS011;59073;51.994;4.448;2023-04-24T12:45:44;4.00;;;2.94;;
71290;SDS011;59073;51.994;4.448;2023-04-24T12:48:11;3.76;;;2.78;;
71290;SDS011;59073;51.994;4.448;2023-04-24T12:50:37;3.71;;;2.74;;
71290;SDS011;59073;51.994;4.448;2023-04-24T12:53:03;3.79;;;2.88;;
71290;SDS011;59073;51.994;4.448;2023-04-24T12:55:28;3.40;;;2.56;;
71290;SDS011;59073;51.994;4.448;2023-04-24T12:57:54;3.84;;;2.92;;
71290;SDS011;59073;51.994;4.448;2023-04-24T13:00:21;3.79;;;2.91;;
71290;SDS011;59073;51.994;4.448;2023-04-24T13:02:47;3.93;;;3.05;;
71290;SDS011;59073;51.994;4.448;2023-04-24T13:05:12;3.74;;;2.93;;
71290;SDS011;59073;51.994;4.448;2023-04-24T13:07:38;3.79;;;3.00;;
71290;SDS011;59073;51.994;4.448;2023-04-24T13:10:04;3.86;;;3.02;;
71290;SDS011;59073;51.994;4.448;2023-04-24T13:12:30;2.80;;;2.21;;
71290;SDS011;59073;51.994;4.448;2023-04-24T13:14:56;2.93;;;2.37;;
71290;SDS011;59073;51.994;4.448;2023-04-24T13:17:23;2.91;;;2.44;;
71290;SDS011;59073;51.994;4.448;2023-04-24T13:19:49;3.06;;;2.58;;
71290;SDS011;59073;51.994;4.448;2023-04-24T13:22:16;2.67;;;2.25;;
71290;SDS011;59073;51.994;4.448;2023-04-24T13:24:43;2.61;;;2.20;;
71290;SDS011;59073;51.994;4.448;2023-04-24T13:27:09;2.76;;;2.34;;
71290;SDS011;59073;51.994;4.448;2023-04-24T13:29:35;3.09;;;2.56;;
71290;SDS011;59073;51.994;4.448;2023-04-24T13:32:01;2.88;;;2.32;;
71290;SDS011;59073;51.994;4.448;2023-04-24T13:34:27;2.98;;;2.43;;
71290;SDS011;59073;51.994;4.448;2023-04-24T13:36:53;2.76;;;2.31;;
71290;SDS011;59073;51.994;4.448;2023-04-24T13:39:21;2.38;;;2.02;;
71290;SDS011;59073;51.994;4.448;2023-04-24T13:41:47;2.75;;;2.36;;
71290;SDS011;59073;51.994;4.448;2023-04-24T13:44:13;2.81;;;2.46;;
71290;SDS011;59073;51.994;4.448;2023-04-24T13:46:40;2.28;;;2.02;;
71290;SDS011;59073;51.994;4.448;2023-04-24T13:49:06;2.49;;;2.20;;
71290;SDS011;59073;51.994;4.448;2023-04-24T13:51:32;2.13;;;1.92;;
71290;SDS011;59073;51.994;4.448;2023-04-24T13:53:57;2.17;;;1.98;;
71290;SDS011;59073;51.994;4.448;2023-04-24T13:56:23;2.41;;;2.20;;
71290;SDS011;59073;51.994;4.448;2023-04-24T13:58:48;2.74;;;2.50;;
71290;SDS011;59073;51.994;4.448;2023-04-24T14:01:14;3.00;;;2.71;;
71290;SDS011;59073;51.994;4.448;2023-04-24T14:03:41;3.54;;;3.13;;
71290;SDS011;59073;51.994;4.448;2023-04-24T14:06:06;3.39;;;2.94;;
71290;SDS011;59073;51.994;4.448;2023-04-24T14:08:32;3.26;;;2.83;;
71290;SDS011;59073;51.994;4.448;2023-04-24T14:10:57;4.22;;;3.57;;
71290;SDS011;59073;51.994;4.448;2023-04-24T14:13:23;3.78;;;3.20;;
71290;SDS011;59073;51.994;4.448;2023-04-24T14:15:49;3.79;;;3.27;;
71290;SDS011;59073;51.994;4.448;2023-04-24T14:18:14;4.27;;;3.74;;
71290;SDS011;59073;51.994;4.448;2023-04-24T14:20:40;3.92;;;3.33;;
71290;SDS011;59073;51.994;4.448;2023-04-24T14:23:05;3.87;;;3.20;;
71290;SDS011;59073;51.994;4.448;2023-04-24T14:25:31;4.24;;;3.49;;
71290;SDS011;59073;51.994;4.448;2023-04-24T14:27:56;3.93;;;3.27;;
71290;SDS011;59073;51.994;4.448;2023-04-24T14:30:22;3.53;;;3.00;;
71290;SDS011;59073;51.994;4.448;2023-04-24T14:32:47;3.61;;;3.12;;
71290;SDS011;59073;51.994;4.448;2023-04-24T14:35:13;3.15;;;2.70;;
71290;SDS011;59073;51.994;4.448;2023-04-24T14:37:39;3.38;;;2.96;;
71290;SDS011;59073;51.994;4.448;2023-04-24T14:40:06;3.14;;;2.75;;
71290;SDS011;59073;51.994;4.448;2023-04-24T14:42:33;3.18;;;2.81;;
71290;SDS011;59073;51.994;4.448;2023-04-24T14:44:59;3.48;;;3.06;;
71290;SDS011;59073;51.994;4.448;2023-04-24T14:47:24;3.38;;;2.98;;
71290;SDS011;59073;51.994;4.448;2023-04-24T14:49:50;3.44;;;3.00;;
71290;SDS011;59073;51.994;4.448;2023-04-24T14:52:15;3.26;;;2.80;;
71290;SDS011;59073;51.994;4.448;2023-04-24T14:54:41;3.39;;;2.90;;
71290;SDS011;59073;51.994;4.448;2023-04-24T14:57:07;3.83;;;3.24;;
71290;SDS011;59073;51.994;4.448;2023-04-24T14:59:33;3.56;;;3.04;;